sensor_id;sensor_type;location;lat;lon;timestamp;pressure;altitude;pressure_sealevel;temperature;humidity
27358;BME280;14831;50.474;7.616;2023-02-12T00:01:58;100120;;;3.9;96.8
27358;BME280;14831;50.474;7.616;2023-02-12T00:06:58;100130;;;3.9;96.8
27358;BME280;14831;50.474;7.616;2023-02-12T00:11:58;100130;;;3.9;96.8
27358;BME280;14831;50.474;7.616;2023-02-12T00:16:58;100140;;;3.9;96.8
27358;BME280;14831;50.474;7.616;2023-02-12T00:21:58;100140;;;3.9;96.8
27358;BME280;14831;50.474;7.616;2023-02-12T00:26:58;100130;;;3.9;96.8
27358;BME280;14831;50.474;7.616;2023-02-12T00:31:58;100130;;;3.9;96.8
27358;BME280;14831;50.474;7.616;2023-02-12T00:36:58;100130;;;3.9;96.8
27358;BME280;14831;50.474;7.616;2023-02-12T00:42:01;100130;;;3.9;96.8
27358;BME280;14831;50.474;7.616;2023-02-12T00:46:58;100130;;;3.9;96.8
27358;BME280;14831;50.474;7.616;2023-02-12T00:51:58;100130;;;3.9;96.8
27358;BME280;14831;50.474;7.616;2023-02-12T00:56:58;100130;;;3.9;96.8
27358;BME280;14831;50.474;7.616;2023-02-12T01:01:58;100130;;;4.0;96.8
27358;BME280;14831;50.474;7.616;2023-02-12T01:06:58;100120;;;4.0;96.8
27358;BME280;14831;50.474;7.616;2023-02-12T01:11:58;100120;;;4.0;96.8
27358;BME280;14831;50.474;7.616;2023-02-12T01:16:58;100140;;;4.0;96.8
27358;BME280;14831;50.474;7.616;2023-02-12T01:21:58;100130;;;4.0;96.8
27358;BME280;14831;50.474;7.616;2023-02-12T01:26:58;100130;;;4.0;96.8
27358;BME280;14831;50.474;7.616;2023-02-12T01:31:58;100130;;;4.0;96.8
27358;BME280;14831;50.474;7.616;2023-02-12T01:36:58;100130;;;4.0;96.8
27358;BME280;14831;50.474;7.616;2023-02-12T01:41:58;100140;;;3.9;96.8
27358;BME280;14831;50.474;7.616;2023-02-12T01:46:59;100120;;;4.0;96.8
27358;BME280;14831;50.474;7.616;2023-02-12T01:51:59;100120;;;4.0;96.8
27358;BME280;14831;50.474;7.616;2023-02-12T01:56:58;100120;;;4.0;96.8
27358;BME280;14831;50.474;7.616;2023-02-12T02:01:58;100130;;;3.9;96.8
27358;BME280;14831;50.474;7.616;2023-02-12T02:06:59;100130;;;3.9;96.8
27358;BME280;14831;50.474;7.616;2023-02-12T02:11:58;100130;;;3.9;96.8
27358;BME280;14831;50.474;7.616;2023-02-12T02:17:02;100130;;;3.9;96.8
27358;BME280;14831;50.474;7.616;2023-02-12T02:22:01;100130;;;3.9;96.8
27358;BME280;14831;50.474;7.616;2023-02-12T02:31:59;100120;;;3.9;96.8
27358;BME280;14831;50.474;7.616;2023-02-12T02:37:00;100120;;;3.8;96.8
27358;BME280;14831;50.474;7.616;2023-02-12T02:41:58;100110;;;3.8;96.8
27358;BME280;14831;50.474;7.616;2023-02-12T02:46:58;100110;;;3.8;96.8
27358;BME280;14831;50.474;7.616;2023-02-12T02:51:59;100110;;;3.8;96.8
27358;BME280;14831;50.474;7.616;2023-02-12T02:56:59;100110;;;3.8;96.8
27358;BME280;14831;50.474;7.616;2023-02-12T03:01:59;100100;;;3.7;96.8
27358;BME280;14831;50.474;7.616;2023-02-12T03:06:59;100120;;;3.7;96.8
27358;BME280;14831;50.474;7.616;2023-02-12T03:12:00;100100;;;3.7;96.8
27358;BME280;14831;50.474;7.616;2023-02-12T03:16:59;100100;;;3.7;96.8
27358;BME280;14831;50.474;7.616;2023-02-12T03:21:59;100100;;;3.7;96.7
27358;BME280;14831;50.474;7.616;2023-02-12T03:26:59;100100;;;3.7;96.8
27358;BME280;14831;50.474;7.616;2023-02-12T03:32:01;100100;;;3.7;96.8
27358;BME280;14831;50.474;7.616;2023-02-12T03:36:59;100100;;;3.7;96.8
27358;BME280;14831;50.474;7.616;2023-02-12T03:42:00;100100;;;3.7;96.8
27358;BME280;14831;50.474;7.616;2023-02-12T03:47:00;100100;;;3.7;96.8
27358;BME280;14831;50.474;7.616;2023-02-12T03:51:58;100110;;;3.7;96.8
27358;BME280;14831;50.474;7.616;2023-02-12T03:57:00;100110;;;3.7;96.8
27358;BME280;14831;50.474;7.616;2023-02-12T04:01:58;100110;;;3.7;96.8
27358;BME280;14831;50.474;7.616;2023-02-12T04:06:58;100110;;;3.7;96.8
27358;BME280;14831;50.474;7.616;2023-02-12T04:12:01;100110;;;3.7;96.8
27358;BME280;14831;50.474;7.616;2023-02-12T04:16:59;100110;;;3.7;96.8
27358;BME280;14831;50.474;7.616;2023-02-12T04:22:03;100110;;;3.7;96.8
27358;BME280;14831;50.474;7.616;2023-02-12T04:26:59;100110;;;3.7;96.8
27358;BME280;14831;50.474;7.616;2023-02-12T04:32:01;100120;;;3.7;96.8
27358;BME280;14831;50.474;7.616;2023-02-12T04:37:01;100110;;;3.7;96.8
27358;BME280;14831;50.474;7.616;2023-02-12T04:41:59;100120;;;3.7;96.8
27358;BME280;14831;50.474;7.616;2023-02-12T04:46:58;100130;;;3.7;96.8
27358;BME280;14831;50.474;7.616;2023-02-12T04:51:59;100120;;;3.7;96.8
27358;BME280;14831;50.474;7.616;2023-02-12T04:56:58;100140;;;3.7;96.8
27358;BME280;14831;50.474;7.616;2023-02-12T05:01:58;100140;;;3.6;96.8
27358;BME280;14831;50.474;7.616;2023-02-12T05:06:58;100140;;;3.7;96.8
27358;BME280;14831;50.474;7.616;2023-02-12T05:11:58;100130;;;3.7;96.8
27358;BME280;14831;50.474;7.616;2023-02-12T05:16:58;100140;;;3.7;96.8
27358;BME280;14831;50.474;7.616;2023-02-12T05:21:58;100140;;;3.7;96.8
27358;BME280;14831;50.474;7.616;2023-02-12T05:26:58;100130;;;3.7;96.8
27358;BME280;14831;50.474;7.616;2023-02-12T05:31:58;100130;;;3.7;96.8
27358;BME280;14831;50.474;7.616;2023-02-12T05:36:58;100130;;;3.7;96.8
27358;BME280;14831;50.474;7.616;2023-02-12T05:41:58;100140;;;3.7;96.8
27358;BME280;14831;50.474;7.616;2023-02-12T05:46:58;100150;;;3.7;96.8
27358;BME280;14831;50.474;7.616;2023-02-12T05:51:58;100140;;;3.6;96.8
27358;BME280;14831;50.474;7.616;2023-02-12T05:56:58;100150;;;3.6;96.8
27358;BME280;14831;50.474;7.616;2023-02-12T06:01:58;100150;;;3.6;96.8
27358;BME280;14831;50.474;7.616;2023-02-12T06:06:58;100150;;;3.6;96.8
27358;BME280;14831;50.474;7.616;2023-02-12T06:11:58;100150;;;3.7;96.8
27358;BME280;14831;50.474;7.616;2023-02-12T06:16:58;100150;;;3.7;96.8
27358;BME280;14831;50.474;7.616;2023-02-12T06:21:58;100150;;;3.7;96.8
27358;BME280;14831;50.474;7.616;2023-02-12T06:26:58;100160;;;3.7;96.8
27358;BME280;14831;50.474;7.616;2023-02-12T06:31:58;100170;;;3.7;96.8
27358;BME280;14831;50.474;7.616;2023-02-12T06:36:58;100170;;;3.7;96.8
27358;BME280;14831;50.474;7.616;2023-02-12T06:41:58;100170;;;3.7;96.8
27358;BME280;14831;50.474;7.616;2023-02-12T06:46:58;100180;;;3.7;96.8
27358;BME280;14831;50.474;7.616;2023-02-12T06:51:58;100180;;;3.7;96.8
27358;BME280;14831;50.474;7.616;2023-02-12T06:56:58;100190;;;3.8;96.8
27358;BME280;14831;50.474;7.616;2023-02-12T07:01:58;100180;;;3.8;96.8
27358;BME280;14831;50.474;7.616;2023-02-12T07:06:58;100190;;;3.8;96.8
27358;BME280;14831;50.474;7.616;2023-02-12T07:11:58;100180;;;3.8;96.8
27358;BME280;14831;50.474;7.616;2023-02-12T07:16:58;100180;;;3.8;96.8
27358;BME280;14831;50.474;7.616;2023-02-12T07:21:58;100210;;;3.9;96.8
27358;BME280;14831;50.474;7.616;2023-02-12T07:26:58;100190;;;3.9;96.8
27358;BME280;14831;50.474;7.616;2023-02-12T07:31:59;100190;;;3.9;96.8
27358;BME280;14831;50.474;7.616;2023-02-12T07:36:58;100200;;;4.0;96.8
27358;BME280;14831;50.474;7.616;2023-02-12T07:41:58;100200;;;4.1;96.9
27358;BME280;14831;50.474;7.616;2023-02-12T07:46:58;100200;;;4.1;96.9
27358;BME280;14831;50.474;7.616;2023-02-12T07:51:58;100200;;;4.1;96.9
27358;BME280;14831;50.474;7.616;2023-02-12T07:56:58;100200;;;4.1;96.9
27358;BME280;14831;50.474;7.616;2023-02-12T08:01:58;100190;;;4.3;96.9
27358;BME280;14831;50.474;7.616;2023-02-12T08:06:58;100200;;;4.4;96.9
27358;BME280;14831;50.474;7.616;2023-02-12T08:11:58;100200;;;4.6;96.9
27358;BME280;14831;50.474;7.616;2023-02-12T08:16:58;100200;;;4.7;97.0
27358;BME280;14831;50.474;7.616;2023-02-12T08:21:58;100200;;;4.8;97.0
27358;BME280;14831;50.474;7.616;2023-02-12T08:26:58;100210;;;4.7;96.9
27358;BME280;14831;50.474;7.616;2023-02-12T08:31:59;100200;;;4.8;97.0
27358;BME280;14831;50.474;7.616;2023-02-12T08:36:58;100220;;;4.6;96.9
27358;BME280;14831;50.474;7.616;2023-02-12T08:41:59;100220;;;4.7;97.0
27358;BME280;14831;50.474;7.616;2023-02-12T08:46:58;100230;;;4.9;97.0
27358;BME280;14831;50.474;7.616;2023-02-12T08:51:58;100230;;;5.0;97.0
27358;BME280;14831;50.474;7.616;2023-02-12T08:56:59;100240;;;5.0;97.0
27358;BME280;14831;50.474;7.616;2023-02-12T09:01:58;100230;;;5.0;97.0
27358;BME280;14831;50.474;7.616;2023-02-12T09:06:58;100240;;;5.1;97.0
27358;BME280;14831;50.474;7.616;2023-02-12T09:11:58;100240;;;5.2;97.0
27358;BME280;14831;50.474;7.616;2023-02-12T09:16:58;100240;;;5.1;97.0
27358;BME280;14831;50.474;7.616;2023-02-12T09:21:58;100240;;;5.3;97.0
27358;BME280;14831;50.474;7.616;2023-02-12T09:26:58;100250;;;5.5;96.5
27358;BME280;14831;50.474;7.616;2023-02-12T09:31:58;100250;;;5.6;96.4
27358;BME280;14831;50.474;7.616;2023-02-12T09:36:58;100240;;;5.6;95.5
27358;BME280;14831;50.474;7.616;2023-02-12T09:42:02;100240;;;5.8;95.1
27358;BME280;14831;50.474;7.616;2023-02-12T09:46:59;100250;;;6.0;94.9
27358;BME280;14831;50.474;7.616;2023-02-12T09:51:58;100260;;;5.9;94.5
27358;BME280;14831;50.474;7.616;2023-02-12T09:56:59;100250;;;6.1;94.7
27358;BME280;14831;50.474;7.616;2023-02-12T10:01:58;100270;;;6.4;93.2
27358;BME280;14831;50.474;7.616;2023-02-12T10:07:00;100260;;;6.6;92.1
27358;BME280;14831;50.474;7.616;2023-02-12T10:11:59;100260;;;6.2;91.2
27358;BME280;14831;50.474;7.616;2023-02-12T10:17:00;100270;;;6.3;91.5
27358;BME280;14831;50.474;7.616;2023-02-12T10:22:00;100280;;;6.7;91.2
27358;BME280;14831;50.474;7.616;2023-02-12T10:26:59;100270;;;6.8;90.5
27358;BME280;14831;50.474;7.616;2023-02-12T10:31:59;100260;;;6.7;90.2
27358;BME280;14831;50.474;7.616;2023-02-12T10:37:02;100280;;;6.9;89.6
27358;BME280;14831;50.474;7.616;2023-02-12T10:42:00;100280;;;7.1;89.3
27358;BME280;14831;50.474;7.616;2023-02-12T10:46:59;100290;;;7.2;88.6
27358;BME280;14831;50.474;7.616;2023-02-12T10:52:01;100280;;;7.2;87.8
27358;BME280;14831;50.474;7.616;2023-02-12T10:56:58;100270;;;7.4;88.2
27358;BME280;14831;50.474;7.616;2023-02-12T11:01:58;100270;;;7.5;87.1
27358;BME280;14831;50.474;7.616;2023-02-12T11:06:59;100260;;;7.7;86.4
27358;BME280;14831;50.474;7.616;2023-02-12T11:11:58;100250;;;7.7;85.8
27358;BME280;14831;50.474;7.616;2023-02-12T11:16:58;100250;;;7.6;85.3
27358;BME280;14831;50.474;7.616;2023-02-12T11:22:03;100260;;;7.8;85.2
27358;BME280;14831;50.474;7.616;2023-02-12T11:27:10;100230;;;7.9;84.8
27358;BME280;14831;50.474;7.616;2023-02-12T11:31:59;100250;;;7.9;84.5
27358;BME280;14831;50.474;7.616;2023-02-12T11:36:59;100240;;;7.9;84.5
27358;BME280;14831;50.474;7.616;2023-02-12T11:41:59;100220;;;8.0;84.6
27358;BME280;14831;50.474;7.616;2023-02-12T11:46:59;100230;;;7.9;84.7
27358;BME280;14831;50.474;7.616;2023-02-12T11:51:59;100220;;;7.8;84.8
27358;BME280;14831;50.474;7.616;2023-02-12T11:56:58;100220;;;7.8;84.5
27358;BME280;14831;50.474;7.616;2023-02-12T12:01:59;100220;;;7.9;85.6
27358;BME280;14831;50.474;7.616;2023-02-12T12:06:59;100220;;;7.9;84.3
27358;BME280;14831;50.474;7.616;2023-02-12T12:12:03;100220;;;7.9;84.1
27358;BME280;14831;50.474;7.616;2023-02-12T12:16:59;100210;;;7.8;83.9
27358;BME280;14831;50.474;7.616;2023-02-12T12:22:01;100210;;;7.9;84.8
27358;BME280;14831;50.474;7.616;2023-02-12T12:27:01;100210;;;8.0;84.0
27358;BME280;14831;50.474;7.616;2023-02-12T12:31:59;100200;;;7.9;83.2
27358;BME280;14831;50.474;7.616;2023-02-12T12:37:05;100200;;;8.0;82.6
27358;BME280;14831;50.474;7.616;2023-02-12T12:42:10;100200;;;8.1;82.2
27358;BME280;14831;50.474;7.616;2023-02-12T12:47:01;100190;;;8.0;81.2
27358;BME280;14831;50.474;7.616;2023-02-12T12:52:03;100180;;;8.0;82.3
27358;BME280;14831;50.474;7.616;2023-02-12T12:57:00;100180;;;8.0;82.6
27358;BME280;14831;50.474;7.616;2023-02-12T13:02:04;100180;;;8.0;83.3
27358;BME280;14831;50.474;7.616;2023-02-12T13:07:01;100180;;;8.1;80.8
27358;BME280;14831;50.474;7.616;2023-02-12T13:12:10;100170;;;8.2;81.2
27358;BME280;14831;50.474;7.616;2023-02-12T13:16:59;100170;;;8.4;80.1
27358;BME280;14831;50.474;7.616;2023-02-12T13:22:00;100160;;;8.4;79.0
27358;BME280;14831;50.474;7.616;2023-02-12T13:26:59;100160;;;8.4;79.2
27358;BME280;14831;50.474;7.616;2023-02-12T13:32:03;100150;;;8.2;80.0
27358;BME280;14831;50.474;7.616;2023-02-12T13:36:58;100150;;;8.2;80.6
27358;BME280;14831;50.474;7.616;2023-02-12T13:42:01;100150;;;8.3;79.9
27358;BME280;14831;50.474;7.616;2023-02-12T13:47:01;100150;;;8.3;80.6
27358;BME280;14831;50.474;7.616;2023-02-12T13:52:00;100150;;;8.3;80.3
27358;BME280;14831;50.474;7.616;2023-02-12T13:56:59;100150;;;8.1;81.2
27358;BME280;14831;50.474;7.616;2023-02-12T14:01:59;100150;;;8.1;81.7
27358;BME280;14831;50.474;7.616;2023-02-12T14:06:59;100130;;;8.0;82.0
27358;BME280;14831;50.474;7.616;2023-02-12T14:11:58;100130;;;8.0;82.1
27358;BME280;14831;50.474;7.616;2023-02-12T14:17:17;100130;;;8.0;82.0
27358;BME280;14831;50.474;7.616;2023-02-12T14:21:58;100130;;;7.9;82.6
27358;BME280;14831;50.474;7.616;2023-02-12T14:26:58;100120;;;7.9;82.4
27358;BME280;14831;50.474;7.616;2023-02-12T14:31:58;100120;;;7.9;82.3
27358;BME280;14831;50.474;7.616;2023-02-12T14:37:15;100130;;;7.8;82.2
27358;BME280;14831;50.474;7.616;2023-02-12T14:46:59;100140;;;7.8;82.6
27358;BME280;14831;50.474;7.616;2023-02-12T14:51:59;100130;;;7.8;83.7
27358;BME280;14831;50.474;7.616;2023-02-12T14:56:59;100140;;;7.8;83.2
27358;BME280;14831;50.474;7.616;2023-02-12T15:01:59;100130;;;7.8;83.5
27358;BME280;14831;50.474;7.616;2023-02-12T15:07:00;100130;;;7.7;83.0
27358;BME280;14831;50.474;7.616;2023-02-12T15:12:00;100150;;;7.7;83.4
27358;BME280;14831;50.474;7.616;2023-02-12T15:17:01;100140;;;7.7;82.7
27358;BME280;14831;50.474;7.616;2023-02-12T15:21:58;100140;;;7.6;83.0
27358;BME280;14831;50.474;7.616;2023-02-12T15:26:58;100130;;;7.6;82.9
27358;BME280;14831;50.474;7.616;2023-02-12T15:31:59;100130;;;7.6;83.4
27358;BME280;14831;50.474;7.616;2023-02-12T15:36:59;100120;;;7.6;83.3
27358;BME280;14831;50.474;7.616;2023-02-12T15:41:58;100120;;;7.6;83.4
27358;BME280;14831;50.474;7.616;2023-02-12T15:46:59;100120;;;7.6;83.7
27358;BME280;14831;50.474;7.616;2023-02-12T15:51:59;100120;;;7.5;83.7
27358;BME280;14831;50.474;7.616;2023-02-12T15:56:58;100110;;;7.4;84.1
27358;BME280;14831;50.474;7.616;2023-02-12T16:01:59;100120;;;7.4;83.5
27358;BME280;14831;50.474;7.616;2023-02-12T16:06:58;100110;;;7.4;84.4
27358;BME280;14831;50.474;7.616;2023-02-12T16:11:59;100100;;;7.3;84.8
27358;BME280;14831;50.474;7.616;2023-02-12T16:16:58;100100;;;7.3;84.8
27358;BME280;14831;50.474;7.616;2023-02-12T16:21:59;100100;;;7.2;84.8
27358;BME280;14831;50.474;7.616;2023-02-12T16:27:01;100100;;;7.2;84.8
27358;BME280;14831;50.474;7.616;2023-02-12T16:31:59;100100;;;7.2;85.1
27358;BME280;14831;50.474;7.616;2023-02-12T16:36:58;100100;;;7.1;85.3
27358;BME280;14831;50.474;7.616;2023-02-12T16:41:58;100110;;;7.1;85.7
27358;BME280;14831;50.474;7.616;2023-02-12T16:46:59;100100;;;7.0;85.9
27358;BME280;14831;50.474;7.616;2023-02-12T16:56:59;100110;;;6.9;86.2
27358;BME280;14831;50.474;7.616;2023-02-12T17:01:59;100110;;;6.9;86.3
27358;BME280;14831;50.474;7.616;2023-02-12T17:06:58;100120;;;6.9;86.5
27358;BME280;14831;50.474;7.616;2023-02-12T17:11:58;100120;;;6.8;86.9
27358;BME280;14831;50.474;7.616;2023-02-12T17:16:58;100120;;;6.8;87.3
27358;BME280;14831;50.474;7.616;2023-02-12T17:21:58;100120;;;6.8;87.5
27358;BME280;14831;50.474;7.616;2023-02-12T17:26:58;100120;;;6.8;87.7
27358;BME280;14831;50.474;7.616;2023-02-12T17:31:58;100120;;;6.8;87.9
27358;BME280;14831;50.474;7.616;2023-02-12T17:36:58;100130;;;6.8;88.2
27358;BME280;14831;50.474;7.616;2023-02-12T17:41:58;100130;;;6.8;87.8
27358;BME280;14831;50.474;7.616;2023-02-12T17:46:58;100130;;;6.8;87.8
27358;BME280;14831;50.474;7.616;2023-02-12T17:51:58;100130;;;6.8;87.9
27358;BME280;14831;50.474;7.616;2023-02-12T17:56:58;100140;;;6.7;88.0
27358;BME280;14831;50.474;7.616;2023-02-12T18:01:58;100150;;;6.7;87.9
27358;BME280;14831;50.474;7.616;2023-02-12T18:06:58;100150;;;6.7;87.7
27358;BME280;14831;50.474;7.616;2023-02-12T18:11:58;100140;;;6.7;88.0
27358;BME280;14831;50.474;7.616;2023-02-12T18:16:58;100140;;;6.7;88.2
27358;BME280;14831;50.474;7.616;2023-02-12T18:21:58;100150;;;6.7;88.4
27358;BME280;14831;50.474;7.616;2023-02-12T18:26:58;100150;;;6.7;88.6
27358;BME280;14831;50.474;7.616;2023-02-12T18:31:58;100130;;;6.6;88.8
27358;BME280;14831;50.474;7.616;2023-02-12T18:36:58;100140;;;6.7;88.6
27358;BME280;14831;50.474;7.616;2023-02-12T18:41:58;100150;;;6.7;88.5
27358;BME280;14831;50.474;7.616;2023-02-12T18:46:58;100140;;;6.7;88.5
27358;BME280;14831;50.474;7.616;2023-02-12T18:51:58;100140;;;6.6;88.8
27358;BME280;14831;50.474;7.616;2023-02-12T18:56:58;100140;;;6.6;89.0
27358;BME280;14831;50.474;7.616;2023-02-12T19:01:58;100140;;;6.5;89.4
27358;BME280;14831;50.474;7.616;2023-02-12T19:06:58;100150;;;6.5;89.4
27358;BME280;14831;50.474;7.616;2023-02-12T19:11:58;100140;;;6.5;89.4
27358;BME280;14831;50.474;7.616;2023-02-12T19:16:58;100140;;;6.5;89.6
27358;BME280;14831;50.474;7.616;2023-02-12T19:21:58;100140;;;6.5;89.7
27358;BME280;14831;50.474;7.616;2023-02-12T19:26:58;100140;;;6.5;90.0
27358;BME280;14831;50.474;7.616;2023-02-12T19:31:58;100140;;;6.5;90.0
27358;BME280;14831;50.474;7.616;2023-02-12T19:36:58;100140;;;6.5;90.1
27358;BME280;14831;50.474;7.616;2023-02-12T19:41:58;100140;;;6.5;90.1
27358;BME280;14831;50.474;7.616;2023-02-12T19:46:58;100130;;;6.5;90.6
27358;BME280;14831;50.474;7.616;2023-02-12T19:51:58;100140;;;6.4;91.0
27358;BME280;14831;50.474;7.616;2023-02-12T19:56:58;100130;;;6.4;91.3
27358;BME280;14831;50.474;7.616;2023-02-12T20:01:58;100130;;;6.4;91.5
27358;BME280;14831;50.474;7.616;2023-02-12T20:06:58;100130;;;6.3;91.7
27358;BME280;14831;50.474;7.616;2023-02-12T20:11:58;100130;;;6.3;91.8
27358;BME280;14831;50.474;7.616;2023-02-12T20:16:58;100130;;;6.3;91.9
27358;BME280;14831;50.474;7.616;2023-02-12T20:21:58;100130;;;6.2;92.0
27358;BME280;14831;50.474;7.616;2023-02-12T20:26:59;100120;;;6.2;92.1
27358;BME280;14831;50.474;7.616;2023-02-12T20:31:58;100130;;;6.2;92.1
27358;BME280;14831;50.474;7.616;2023-02-12T20:36:58;100130;;;6.2;92.1
27358;BME280;14831;50.474;7.616;2023-02-12T20:41:58;100130;;;6.2;92.2
27358;BME280;14831;50.474;7.616;2023-02-12T20:46:58;100130;;;6.1;92.4
27358;BME280;14831;50.474;7.616;2023-02-12T20:51:58;100120;;;6.1;92.6
27358;BME280;14831;50.474;7.616;2023-02-12T20:56:58;100130;;;6.1;92.7
27358;BME280;14831;50.474;7.616;2023-02-12T21:01:58;100130;;;6.1;92.7
27358;BME280;14831;50.474;7.616;2023-02-12T21:06:58;100130;;;6.1;92.7
27358;BME280;14831;50.474;7.616;2023-02-12T21:11:58;100130;;;6.1;92.7
27358;BME280;14831;50.474;7.616;2023-02-12T21:16:58;100130;;;6.0;92.8
27358;BME280;14831;50.474;7.616;2023-02-12T21:21:58;100140;;;6.0;92.6
27358;BME280;14831;50.474;7.616;2023-02-12T21:26:58;100130;;;6.0;92.6
27358;BME280;14831;50.474;7.616;2023-02-12T21:31:58;100130;;;6.0;92.7
27358;BME280;14831;50.474;7.616;2023-02-12T21:36:58;100130;;;6.0;92.7
27358;BME280;14831;50.474;7.616;2023-02-12T21:41:59;100130;;;6.0;92.8
27358;BME280;14831;50.474;7.616;2023-02-12T21:46:58;100130;;;6.0;92.9
27358;BME280;14831;50.474;7.616;2023-02-12T21:51:59;100140;;;6.0;93.0
27358;BME280;14831;50.474;7.616;2023-02-12T21:56:58;100130;;;6.0;93.1
27358;BME280;14831;50.474;7.616;2023-02-12T22:01:58;100130;;;5.9;93.2
27358;BME280;14831;50.474;7.616;2023-02-12T22:06:58;100120;;;5.9;93.4
27358;BME280;14831;50.474;7.616;2023-02-12T22:11:58;100130;;;5.9;93.5
27358;BME280;14831;50.474;7.616;2023-02-12T22:16:58;100130;;;5.9;93.6
27358;BME280;14831;50.474;7.616;2023-02-12T22:21:58;100130;;;5.9;93.6
27358;BME280;14831;50.474;7.616;2023-02-12T22:26:59;100130;;;5.9;93.5
27358;BME280;14831;50.474;7.616;2023-02-12T22:31:58;100130;;;5.9;93.4
27358;BME280;14831;50.474;7.616;2023-02-12T22:36:58;100130;;;5.9;93.4
27358;BME280;14831;50.474;7.616;2023-02-12T22:41:58;100130;;;6.0;93.3
27358;BME280;14831;50.474;7.616;2023-02-12T22:46:58;100140;;;6.0;93.2
27358;BME280;14831;50.474;7.616;2023-02-12T22:51:58;100140;;;6.0;93.1
27358;BME280;14831;50.474;7.616;2023-02-12T22:56:58;100150;;;5.9;93.1
27358;BME280;14831;50.474;7.616;2023-02-12T23:01:58;100140;;;6.0;93.1
27358;BME280;14831;50.474;7.616;2023-02-12T23:06:58;100130;;;6.0;93.1
27358;BME280;14831;50.474;7.616;2023-02-12T23:11:58;100140;;;5.9;93.1
27358;BME280;14831;50.474;7.616;2023-02-12T23:16:59;100150;;;5.9;93.1
27358;BME280;14831;50.474;7.616;2023-02-12T23:21:58;100150;;;5.9;93.0
27358;BME280;14831;50.474;7.616;2023-02-12T23:26:58;100140;;;5.9;93.0
27358;BME280;14831;50.474;7.616;2023-02-12T23:31:58;100140;;;5.9;93.1
27358;BME280;14831;50.474;7.616;2023-02-12T23:36:58;100140;;;5.9;93.1
27358;BME280;14831;50.474;7.616;2023-02-12T23:41:58;100140;;;5.9;93.0
27358;BME280;14831;50.474;7.616;2023-02-12T23:46:58;100140;;;5.9;93.1
27358;BME280;14831;50.474;7.616;2023-02-12T23:51:58;100140;;;5.9;93.2
27358;BME280;14831;50.474;7.616;2023-02-12T23:56:58;100140;;;5.9;93.1
